• Join FlightAware (Why Join?)
  • Login
  • US Flag 
11:26AM EDT


 

Airport Tracker/Info


-or-


 

Live Flight TrackerFlight Track Log ✈ USC105 ✈ 09-Apr-2013 ✈ KLCK - KBKL

Flight Track Log - Related Links

Times and Time Zones

All times are in EDT time to prevent confusion due to time zone crossing. See the USC105 flight status page for this flight to view local times or setup timezone preferences in your user account.

Time Position Orientation Groundspeed Altitude Reporting Facility
EDT Latitude Longitude Course Direction KTS MPH feet Rate Location/Type
09:52PM 39.8058 -82.9419 226° Southwest 94 108 1,200  Level Indianapolis Center
09:53PM 39.7964 -82.9547 226° Southwest 90 104 1,800 1,020 Climbing Indianapolis Center
09:54PM 39.7831 -82.9644 209° Southwest 86 99 2,600 600 Climbing Indianapolis Center
09:55PM 39.8083 -82.9322 44° Northeast 156 180 3,000 420 Climbing Indianapolis Center
09:56PM 39.8614 -82.8914 31° Northeast 183 211 3,600 360 Climbing Indianapolis Center
09:57PM 39.8961 -82.8658 29° Northeast 178 205 3,800 240 Climbing Indianapolis Center
09:57PM 39.9144 -82.8511 32° Northeast 194 223 3,900 360 Climbing Indianapolis Center
09:58PM 39.9497 -82.8244 30° Northeast 186 214 4,200 420 Climbing Indianapolis Center
09:58PM 39.9631 -82.8133 33° Northeast 185 213 4,400 480 Climbing Indianapolis Center
09:59PM 39.9939 -82.7903 30° Northeast 186 214 4,700 480 Climbing Indianapolis Center
09:59PM 40.0133 -82.7781 26° Northeast 177 204 5,000 540 Climbing Indianapolis Center
10:00PM 40.0375 -82.7600 30° Northeast 177 204 5,300 540 Climbing Indianapolis Center
10:00PM 40.0550 -82.7500 24° Northeast 175 201 5,600 540 Climbing Indianapolis Center
10:01PM 40.0817 -82.7322 27° Northeast 175 201 5,900 480 Climbing Indianapolis Center
10:01PM 40.1056 -82.7147 29° Northeast 177 204 6,200 480 Climbing Indianapolis Center
10:02PM 40.1256 -82.6981 33° Northeast 180 207 6,400 420 Climbing Indianapolis Center
10:03PM 40.1761 -82.6572 32° Northeast 186 214 6,900 180 Climbing Indianapolis Center
10:04PM 40.2228 -82.6186 32° Northeast 200 230 6,900  Level Indianapolis Center
10:05PM 40.2586 -82.5861 35° Northeast 200 230 6,900  Level Indianapolis Center
10:06PM 40.3175 -82.5514 24° Northeast 197 227 6,900  Level Indianapolis Center
10:07PM 40.3661 -82.5142 30° Northeast 200 230 6,900  Level Indianapolis Center
10:08PM 40.4161 -82.4797 28° Northeast 200 230 6,900  Level Indianapolis Center
10:09PM 40.4678 -82.4431 28° Northeast 207 238 6,900  Level Indianapolis Center
10:10PM 40.5172 -82.3972 35° Northeast 214 246 6,900  Level Indianapolis Center
10:11PM 40.5694 -82.3597 29° Northeast 212 244 6,900  Level Indianapolis Center
10:12PM 40.6231 -82.3264 25° Northeast 211 243 6,900  Level Indianapolis Center
10:13PM 40.6744 -82.2886 29° Northeast 210 242 6,900  Level Indianapolis Center
10:14PM 40.7272 -82.2586 23° Northeast 205 236 6,900  Level Indianapolis Center
10:14PM 40.7469 -82.2494 19° North 203 234 6,900  Level Cleveland Center
10:15PM 40.7892 -82.2150 32° Northeast 206 237 6,900  Level Cleveland Center
10:16PM 40.8397 -82.1778 29° Northeast 202 232 6,900  Level Cleveland Center
10:17PM 40.8903 -82.1406 29° Northeast 209 241 6,900  Level Cleveland Center
10:18PM 40.9389 -82.1003 32° Northeast 208 239 6,900  Level Cleveland Center
10:19PM 40.9914 -82.0658 26° Northeast 203 234 6,900  Level Cleveland Center
10:20PM 41.0336 -82.0311 32° Northeast 206 237 6,900  Level Cleveland Center
10:21PM 41.0944 -81.9856 29° Northeast 202 232 6,900 -180 Level Cleveland Center
10:22PM 41.1308 -81.9172 55° Northeast 235 270 6,500 -480 Descending Cleveland Center
10:23PM 41.1650 -81.8492 56° Northeast 224 258 6,000 -540 Descending Cleveland Center
10:25PM 41.2053 -81.7864 50° Northeast 225 259 5,500 -540 Descending Cleveland Center
10:26PM 41.2456 -81.7208 51° Northeast 230 265 5,000 -600 Descending Cleveland Center
10:27PM 41.2839 -81.6469 55° Northeast 230 265 4,400 -600 Descending Cleveland Center
10:28PM 41.3364 -81.6036 32° Northeast 217 250 3,800 -780 Descending Cleveland Center
10:28PM 41.3883 -81.5961 North 204 235 3,000 -900 Descending Cleveland Center
10:30PM 41.4489 -81.5997 357° North 199 229 2,100 -540 Descending Cleveland Center
10:31PM 41.4967 -81.6117 349° North 172 198 1,900 -240 Descending Cleveland Center